Time;durP1;ratioP1;P1;durP2;ratioP2;P2;SDS_P1;SDS_P2;PMS_P1;PMS_P2;Temp;Humidity;BMP_temperature;BMP_pressure;BME280_temperature;BME280_humidity;BME280_pressure;Samples;Min_cycle;Max_cycle;Signal;HPM_P1;HPM_P2
2022/07/05 00:02:21;;;;;;;;;;;26.10;88.80;;;;;;5024859;28;20294;-75
2022/07/05 00:04:46;;;;;;;;;;;26.20;88.90;;;;;;5012182;28;19914;-75
2022/07/05 00:07:18;;;;;;;;;;;26.10;89.30;;;;;;5014256;28;20409;-75
2022/07/05 00:09:48;;;;;;;;;;;26.10;89.30;;;;;;5022678;28;20424;-74
2022/07/05 00:12:13;;;;;;;;;;;26.00;89.30;;;;;;5029127;28;19917;-74
2022/07/05 00:14:40;;;;;;;;;;;26.00;89.40;;;;;;5031075;28;19913;-75
2022/07/05 00:17:05;;;;;;;;;;;25.90;89.80;;;;;;5034255;28;19943;-75
2022/07/05 00:19:31;;;;;;;;;;;25.90;89.80;;;;;;5035194;28;20433;-75
2022/07/05 00:21:57;;;;;;;;;;;25.90;89.80;;;;;;5035638;28;19988;-75
2022/07/05 00:24:23;;;;;;;;;;;25.80;90.00;;;;;;5034681;28;19917;-75
2022/07/05 00:26:48;;;;;;;;;;;25.90;90.00;;;;;;5035425;28;20004;-74
2022/07/05 00:29:14;;;;;;;;;;;25.80;90.10;;;;;;5035232;28;20049;-75
2022/07/05 00:31:39;;;;;;;;;;;25.80;90.20;;;;;;5035805;28;19982;-75
2022/07/05 00:34:05;;;;;;;;;;;25.80;90.20;;;;;;5034652;28;19967;-75
2022/07/05 00:36:31;;;;;;;;;;;25.80;90.40;;;;;;5035347;28;19920;-75
2022/07/05 00:38:56;;;;;;;;;;;25.80;90.50;;;;;;5034573;28;19917;-74
2022/07/05 00:41:22;;;;;;;;;;;25.80;90.60;;;;;;5035004;28;19913;-75
2022/07/05 00:43:51;;;;;;;;;;;25.70;90.70;;;;;;5022344;28;20290;-74
2022/07/05 00:46:17;;;;;;;;;;;25.70;90.90;;;;;;5033161;28;20373;-74
2022/07/05 00:48:43;;;;;;;;;;;25.60;90.90;;;;;;5034863;28;19913;-74
2022/07/05 00:51:09;;;;;;;;;;;25.60;90.80;;;;;;5034698;28;19969;-75
2022/07/05 00:53:34;;;;;;;;;;;25.60;90.70;;;;;;5034319;28;19928;-75
2022/07/05 00:56:00;;;;;;;;;;;25.60;90.90;;;;;;5035882;28;20262;-74
2022/07/05 00:58:26;;;;;;;;;;;25.60;90.70;;;;;;5034516;28;20011;-74
2022/07/05 01:00:52;;;;;;;;;;;25.60;90.70;;;;;;5034720;28;20405;-75
2022/07/05 01:03:17;;;;;;;;;;;25.60;90.70;;;;;;5032072;28;20461;-75
2022/07/05 01:05:43;;;;;;;;;;;25.60;90.50;;;;;;5019722;28;20398;-74
2022/07/05 01:08:09;;;;;;;;;;;25.60;90.50;;;;;;5032915;28;19909;-74
2022/07/05 01:10:34;;;;;;;;;;;25.50;90.40;;;;;;5034984;28;19909;-74
2022/07/05 01:13:00;;;;;;;;;;;25.50;90.50;;;;;;5028552;28;19914;-74
2022/07/05 01:15:26;;;;;;;;;;;25.50;90.60;;;;;;5025316;28;20450;-74
2022/07/05 01:17:52;;;;;;;;;;;25.50;90.50;;;;;;5034781;28;20262;-75
2022/07/05 01:20:17;;;;;;;;;;;25.50;90.70;;;;;;5034419;28;19928;-74
2022/07/05 01:22:52;;;;;;;;;;;25.40;90.60;;;;;;5021970;28;19917;-74
2022/07/05 01:25:19;;;;;;;;;;;25.30;90.60;;;;;;5032253;28;19913;-74
2022/07/05 01:27:45;;;;;;;;;;;25.30;90.70;;;;;;5033614;28;19979;-74
2022/07/05 01:30:11;;;;;;;;;;;25.30;90.80;;;;;;5034418;28;19916;-74
2022/07/05 01:32:37;;;;;;;;;;;25.30;90.80;;;;;;5034091;28;20364;-75
2022/07/05 01:35:03;;;;;;;;;;;25.30;90.90;;;;;;5034640;28;19909;-74
2022/07/05 01:37:29;;;;;;;;;;;25.20;91.00;;;;;;5033502;28;20004;-75
2022/07/05 01:39:55;;;;;;;;;;;25.30;91.10;;;;;;5033786;28;20004;-74
2022/07/05 01:42:21;;;;;;;;;;;25.30;91.20;;;;;;5033730;28;20703;-75
2022/07/05 01:44:46;;;;;;;;;;;25.30;91.20;;;;;;5034403;28;19966;-75
2022/07/05 01:47:13;;;;;;;;;;;25.30;91.30;;;;;;5034148;28;19932;-74
2022/07/05 01:49:40;;;;;;;;;;;25.30;91.30;;;;;;5034131;28;20007;-75
2022/07/05 01:52:10;;;;;;;;;;;25.20;91.30;;;;;;5023552;28;20383;-74
2022/07/05 01:54:36;;;;;;;;;;;25.20;91.50;;;;;;5024511;28;20378;-74
2022/07/05 01:57:03;;;;;;;;;;;25.30;91.40;;;;;;5021605;28;19913;-74
2022/07/05 01:59:29;;;;;;;;;;;25.20;91.40;;;;;;5033536;28;19936;-75
2022/07/05 02:01:54;;;;;;;;;;;25.20;91.50;;;;;;5019932;28;20000;-75
2022/07/05 02:04:20;;;;;;;;;;;25.30;91.60;;;;;;5031646;28;19948;-74
2022/07/05 02:06:45;;;;;;;;;;;25.30;91.60;;;;;;5033083;28;19920;-74
2022/07/05 02:09:11;;;;;;;;;;;25.20;91.70;;;;;;5033386;28;20010;-74
2022/07/05 02:11:37;;;;;;;;;;;25.20;91.70;;;;;;5033834;28;19913;-74
2022/07/05 02:14:02;;;;;;;;;;;25.20;92.00;;;;;;5020092;28;19968;-74
2022/07/05 02:16:28;;;;;;;;;;;25.10;92.00;;;;;;5032527;28;19917;-75
2022/07/05 02:18:54;;;;;;;;;;;25.10;92.10;;;;;;5032674;28;19968;-75
2022/07/05 02:21:20;;;;;;;;;;;25.10;92.30;;;;;;5033514;28;19913;-75
2022/07/05 02:23:46;;;;;;;;;;;25.00;92.30;;;;;;5033069;28;20453;-75
2022/07/05 02:26:11;;;;;;;;;;;25.10;92.30;;;;;;5033467;28;19910;-75
2022/07/05 02:28:37;;;;;;;;;;;25.00;92.60;;;;;;5033426;28;19909;-75
2022/07/05 02:31:03;;;;;;;;;;;24.90;92.60;;;;;;5033021;28;20359;-74
2022/07/05 02:33:32;;;;;;;;;;;24.90;92.70;;;;;;5033298;28;19948;-74
2022/07/05 02:38:33;;;;;;;;;;;25.00;92.80;;;;;;5512468;22;20739;-74
2022/07/05 02:40:58;;;;;;;;;;;25.00;92.80;;;;;;5008585;28;19926;-75
2022/07/05 02:43:24;;;;;;;;;;;25.00;92.80;;;;;;5013242;28;19913;-73
2022/07/05 02:45:49;;;;;;;;;;;24.90;92.90;;;;;;5013133;28;19948;-75
2022/07/05 02:48:15;;;;;;;;;;;24.90;92.90;;;;;;5013419;28;19916;-75
2022/07/05 02:50:40;;;;;;;;;;;24.90;93.10;;;;;;5013780;28;20362;-74
2022/07/05 02:53:06;;;;;;;;;;;24.90;93.10;;;;;;5014089;28;19910;-74
2022/07/05 02:55:31;;;;;;;;;;;24.80;93.10;;;;;;5013621;28;19909;-74
2022/07/05 02:57:57;;;;;;;;;;;24.70;93.30;;;;;;5013469;28;19941;-74
2022/07/05 03:00:23;;;;;;;;;;;24.80;93.50;;;;;;5012942;28;19922;-74
2022/07/05 03:02:48;;;;;;;;;;;24.80;93.60;;;;;;5012354;28;19910;-75
2022/07/05 03:05:14;;;;;;;;;;;24.80;93.30;;;;;;5013187;28;19909;-75
2022/07/05 03:07:40;;;;;;;;;;;24.80;93.30;;;;;;5013488;28;19913;-74
2022/07/05 03:10:05;;;;;;;;;;;24.70;93.20;;;;;;5013422;28;20044;-74
2022/07/05 03:12:31;;;;;;;;;;;24.70;93.40;;;;;;5012851;28;20425;-74
2022/07/05 03:14:57;;;;;;;;;;;24.70;93.40;;;;;;5011567;28;19917;-75
2022/07/05 03:17:22;;;;;;;;;;;24.70;93.50;;;;;;5013290;28;19949;-74
2022/07/05 03:19:48;;;;;;;;;;;24.60;93.60;;;;;;5012424;28;19928;-74
2022/07/05 03:22:13;;;;;;;;;;;24.60;93.60;;;;;;5013170;28;20339;-75
2022/07/05 03:24:39;;;;;;;;;;;24.60;93.60;;;;;;5013034;28;20389;-74
2022/07/05 03:27:04;;;;;;;;;;;24.60;93.70;;;;;;5013268;28;19991;-75
2022/07/05 03:29:30;;;;;;;;;;;24.50;93.60;;;;;;5013176;28;19909;-75
2022/07/05 03:31:55;;;;;;;;;;;24.50;93.70;;;;;;5012243;28;20004;-75
2022/07/05 03:34:21;;;;;;;;;;;24.50;93.70;;;;;;5013107;28;19910;-75
2022/07/05 03:36:46;;;;;;;;;;;24.30;94.00;;;;;;5013412;28;19972;-74
2022/07/05 03:39:12;;;;;;;;;;;24.30;93.90;;;;;;5012378;28;19984;-74
2022/07/05 03:41:38;;;;;;;;;;;24.40;94.10;;;;;;4993830;28;19914;-74
2022/07/05 03:44:04;;;;;;;;;;;24.30;94.00;;;;;;4993130;28;20374;-75
2022/07/05 03:46:29;;;;;;;;;;;24.40;94.00;;;;;;4993220;28;19945;-74
2022/07/05 03:48:55;;;;;;;;;;;24.50;94.00;;;;;;4993049;28;20346;-75
2022/07/05 03:51:21;;;;;;;;;;;24.40;93.90;;;;;;4993662;28;19932;-75
2022/07/05 03:53:46;;;;;;;;;;;24.40;93.90;;;;;;4992879;28;20382;-75
2022/07/05 03:56:12;;;;;;;;;;;24.40;94.10;;;;;;4993316;28;20247;-75
2022/07/05 03:58:37;;;;;;;;;;;24.40;94.00;;;;;;4992886;28;19955;-74
2022/07/05 04:01:03;;;;;;;;;;;24.40;94.10;;;;;;4993475;28;19914;-74
2022/07/05 04:03:28;;;;;;;;;;;24.40;94.10;;;;;;4992934;28;20445;-74
2022/07/05 04:05:54;;;;;;;;;;;24.40;94.10;;;;;;4993079;28;19910;-74
2022/07/05 04:08:20;;;;;;;;;;;24.30;94.10;;;;;;4991244;28;19917;-75
2022/07/05 04:10:45;;;;;;;;;;;24.40;94.10;;;;;;4993017;28;19913;-74
2022/07/05 04:13:11;;;;;;;;;;;24.30;94.20;;;;;;5002605;28;19918;-74
2022/07/05 04:15:36;;;;;;;;;;;24.30;94.00;;;;;;5012317;28;19910;-74
2022/07/05 04:18:02;;;;;;;;;;;24.30;94.10;;;;;;5012517;28;19964;-75
2022/07/05 04:20:27;;;;;;;;;;;24.30;94.00;;;;;;5010520;28;19928;-74
2022/07/05 04:22:55;;;;;;;;;;;24.30;94.00;;;;;;5012151;28;19916;-75
2022/07/05 04:25:20;;;;;;;;;;;24.30;94.00;;;;;;5012643;28;19910;-75
2022/07/05 04:27:47;;;;;;;;;;;24.30;94.00;;;;;;5012696;28;19910;-74
2022/07/05 04:30:13;;;;;;;;;;;24.30;94.10;;;;;;5012346;28;20271;-75
2022/07/05 04:32:39;;;;;;;;;;;24.30;94.00;;;;;;5012358;28;19909;-74
2022/07/05 04:35:04;;;;;;;;;;;24.30;94.00;;;;;;5012586;28;19936;-74
2022/07/05 04:37:30;;;;;;;;;;;24.30;94.00;;;;;;5012275;28;19955;-74
2022/07/05 04:39:56;;;;;;;;;;;24.20;93.90;;;;;;5012004;28;20008;-75
2022/07/05 04:42:21;;;;;;;;;;;24.20;94.00;;;;;;5012415;28;19994;-74
2022/07/05 04:44:47;;;;;;;;;;;24.30;94.20;;;;;;5012297;28;19964;-74
2022/07/05 04:47:12;;;;;;;;;;;24.20;94.10;;;;;;5012504;28;19917;-74
2022/07/05 04:49:38;;;;;;;;;;;24.30;94.10;;;;;;5012347;28;19996;-75
2022/07/05 04:52:03;;;;;;;;;;;24.30;94.20;;;;;;5012189;28;19910;-75
2022/07/05 04:54:29;;;;;;;;;;;24.30;94.20;;;;;;5012350;28;19909;-74
2022/07/05 04:56:55;;;;;;;;;;;24.30;94.30;;;;;;5012255;28;19921;-74
2022/07/05 04:59:20;;;;;;;;;;;24.40;94.10;;;;;;5012672;28;19921;-74
2022/07/05 05:01:46;;;;;;;;;;;24.40;94.20;;;;;;5012122;28;19914;-74
2022/07/05 05:04:11;;;;;;;;;;;24.40;94.10;;;;;;5015663;28;19917;-75
2022/07/05 05:06:37;;;;;;;;;;;24.50;94.20;;;;;;5015213;28;20366;-74
2022/07/05 05:09:02;;;;;;;;;;;24.40;94.30;;;;;;5015665;28;19940;-74
2022/07/05 05:11:28;;;;;;;;;;;24.30;94.40;;;;;;5015154;28;19913;-74
2022/07/05 05:13:54;;;;;;;;;;;24.30;94.50;;;;;;5015782;28;19913;-75
2022/07/05 05:16:20;;;;;;;;;;;24.30;94.40;;;;;;5015565;28;19906;-75
2022/07/05 05:18:45;;;;;;;;;;;24.40;94.30;;;;;;5015460;28;20289;-75
2022/07/05 05:21:11;;;;;;;;;;;24.40;94.20;;;;;;5015217;28;19909;-73
2022/07/05 05:23:36;;;;;;;;;;;24.40;94.50;;;;;;5015258;28;19910;-75
2022/07/05 05:26:02;;;;;;;;;;;24.50;94.40;;;;;;5015612;28;19910;-78
2022/07/05 05:28:28;;;;;;;;;;;24.40;94.60;;;;;;5015383;28;19910;-75
2022/07/05 05:30:53;;;;;;;;;;;24.50;94.60;;;;;;5010831;28;19918;-74
2022/07/05 05:33:19;;;;;;;;;;;24.50;94.60;;;;;;5014903;28;20285;-74
2022/07/05 05:35:44;;;;;;;;;;;24.60;94.50;;;;;;5001870;28;19914;-74
2022/07/05 05:38:10;;;;;;;;;;;24.60;94.20;;;;;;5012703;28;20294;-75
2022/07/05 05:40:41;;;;;;;;;;;24.60;94.60;;;;;;5014810;28;19925;-74
2022/07/05 05:43:06;;;;;;;;;;;24.60;94.30;;;;;;5014894;28;19910;-74
2022/07/05 05:45:32;;;;;;;;;;;24.70;94.40;;;;;;5015025;28;20345;-74
2022/07/05 05:47:58;;;;;;;;;;;24.70;94.60;;;;;;5013651;28;19910;-74
2022/07/05 05:50:24;;;;;;;;;;;24.70;94.70;;;;;;5015023;28;19910;-74
2022/07/05 05:52:50;;;;;;;;;;;24.70;94.50;;;;;;5015147;28;19916;-75
2022/07/05 05:55:16;;;;;;;;;;;24.80;94.30;;;;;;5014935;28;19910;-74
2022/07/05 05:57:42;;;;;;;;;;;24.80;94.30;;;;;;5014686;28;19913;-74
2022/07/05 06:00:08;;;;;;;;;;;24.90;94.40;;;;;;5014357;28;19983;-74
2022/07/05 06:02:34;;;;;;;;;;;24.90;94.30;;;;;;5014652;28;19917;-75
2022/07/05 06:04:59;;;;;;;;;;;25.00;94.10;;;;;;5013624;28;19914;-75
2022/07/05 06:07:25;;;;;;;;;;;25.10;94.20;;;;;;5013932;28;19949;-75
2022/07/05 06:09:51;;;;;;;;;;;25.10;93.80;;;;;;5014550;28;20510;-75
2022/07/05 06:12:17;;;;;;;;;;;25.10;93.60;;;;;;5014354;28;19996;-73
2022/07/05 06:14:42;;;;;;;;;;;25.10;92.90;;;;;;5012550;28;20297;-73
2022/07/05 06:17:08;;;;;;;;;;;25.20;93.00;;;;;;5014294;28;19921;-72
2022/07/05 06:19:33;;;;;;;;;;;25.30;92.60;;;;;;5013928;28;19924;-73
2022/07/05 06:21:59;;;;;;;;;;;25.20;92.40;;;;;;5014247;28;19909;-73
2022/07/05 06:24:24;;;;;;;;;;;25.30;92.60;;;;;;5014346;28;20008;-73
2022/07/05 06:26:50;;;;;;;;;;;25.30;91.90;;;;;;5014310;28;19916;-72
2022/07/05 06:29:15;;;;;;;;;;;25.30;91.90;;;;;;5012070;28;19964;-73
2022/07/05 06:31:41;;;;;;;;;;;25.40;91.90;;;;;;5014503;28;20437;-73
2022/07/05 06:34:07;;;;;;;;;;;25.40;92.00;;;;;;5013143;28;20297;-72
2022/07/05 06:36:32;;;;;;;;;;;25.50;91.70;;;;;;5014039;28;19910;-73
2022/07/05 06:38:58;;;;;;;;;;;25.50;91.40;;;;;;5013557;28;20024;-73
2022/07/05 06:41:23;;;;;;;;;;;25.60;91.30;;;;;;5013968;28;19917;-72
2022/07/05 06:43:49;;;;;;;;;;;25.60;91.20;;;;;;5013902;28;19910;-73
2022/07/05 06:46:14;;;;;;;;;;;25.60;89.30;;;;;;5013510;28;19918;-73
2022/07/05 06:48:40;;;;;;;;;;;25.60;90.10;;;;;;5012655;28;19975;-71
2022/07/05 06:51:06;;;;;;;;;;;25.70;90.00;;;;;;5012801;28;20404;-72
2022/07/05 06:53:31;;;;;;;;;;;25.80;90.10;;;;;;5014048;28;20282;-72
2022/07/05 06:55:57;;;;;;;;;;;25.80;89.60;;;;;;5013350;28;19916;-72
2022/07/05 06:58:23;;;;;;;;;;;25.90;89.50;;;;;;5013551;28;19910;-71
2022/07/05 07:00:48;;;;;;;;;;;26.00;88.80;;;;;;5013723;28;19955;-72
2022/07/05 07:03:14;;;;;;;;;;;26.00;88.70;;;;;;5013279;28;19914;-72
2022/07/05 07:05:39;;;;;;;;;;;26.00;88.90;;;;;;5013894;28;19909;-71
2022/07/05 07:10:49;;;;;;;;;;;26.10;88.30;;;;;;5013804;28;20345;-72
2022/07/05 07:13:14;;;;;;;;;;;26.20;88.30;;;;;;5013362;28;19953;-71
2022/07/05 07:15:40;;;;;;;;;;;26.20;87.80;;;;;;5012165;28;19917;-72
2022/07/05 07:18:06;;;;;;;;;;;26.20;86.80;;;;;;5013164;28;19909;-71
2022/07/05 07:20:32;;;;;;;;;;;26.20;86.90;;;;;;5013249;28;19921;-72
2022/07/05 07:22:57;;;;;;;;;;;26.30;87.40;;;;;;5013234;28;19909;-72
2022/07/05 07:25:23;;;;;;;;;;;26.40;86.80;;;;;;5013099;28;19910;-73
2022/07/05 07:27:50;;;;;;;;;;;26.40;86.20;;;;;;5013208;28;19949;-71
2022/07/05 07:30:16;;;;;;;;;;;26.50;85.20;;;;;;5013182;28;19914;-73
2022/07/05 07:32:42;;;;;;;;;;;26.50;85.20;;;;;;5012995;28;19916;-73
2022/07/05 07:35:08;;;;;;;;;;;26.50;84.80;;;;;;5013088;28;20286;-72
2022/07/05 07:37:34;;;;;;;;;;;26.60;84.00;;;;;;5012941;28;19996;-76
2022/07/05 07:40:01;;;;;;;;;;;26.70;83.40;;;;;;5012364;28;19921;-71
2022/07/05 07:42:27;;;;;;;;;;;26.70;83.00;;;;;;5008481;28;19913;-70
2022/07/05 07:44:52;;;;;;;;;;;26.80;82.40;;;;;;5012043;28;20386;-70
2022/07/05 07:47:18;;;;;;;;;;;26.80;82.40;;;;;;5012328;28;19920;-70
2022/07/05 07:49:44;;;;;;;;;;;26.90;82.10;;;;;;5012715;28;19910;-70
2022/07/05 07:52:09;;;;;;;;;;;26.90;81.80;;;;;;5001179;28;20374;-70
2022/07/05 07:54:35;;;;;;;;;;;27.00;80.70;;;;;;4995292;28;19918;-70
2022/07/05 07:57:01;;;;;;;;;;;27.10;80.60;;;;;;4990841;28;19914;-70
2022/07/05 07:59:27;;;;;;;;;;;27.10;81.10;;;;;;4996165;28;19921;-71
2022/07/05 08:01:53;;;;;;;;;;;27.20;81.50;;;;;;5010038;28;19913;-70
2022/07/05 08:04:18;;;;;;;;;;;27.20;81.30;;;;;;5009077;28;19914;-70
2022/07/05 08:06:44;;;;;;;;;;;27.20;80.70;;;;;;5009950;28;20338;-71
2022/07/05 08:09:10;;;;;;;;;;;27.20;81.40;;;;;;5009763;28;19909;-70
2022/07/05 08:11:35;;;;;;;;;;;27.40;79.60;;;;;;5009706;28;19953;-70
2022/07/05 08:14:01;;;;;;;;;;;27.40;79.50;;;;;;5009734;28;19948;-70
2022/07/05 08:16:26;;;;;;;;;;;27.40;78.90;;;;;;5008626;28;19910;-70
2022/07/05 08:21:39;;;;;;;;;;;27.60;79.60;;;;;;5009751;28;20020;-70
2022/07/05 08:24:05;;;;;;;;;;;27.60;79.30;;;;;;5009279;28;20385;-70
2022/07/05 08:26:32;;;;;;;;;;;27.70;79.50;;;;;;5007440;28;19980;-71
2022/07/05 08:28:58;;;;;;;;;;;27.70;78.80;;;;;;5009395;28;20384;-71
2022/07/05 08:31:24;;;;;;;;;;;27.70;79.40;;;;;;5009667;28;19913;-71
2022/07/05 08:33:50;;;;;;;;;;;27.80;78.80;;;;;;5010401;28;20418;-71
2022/07/05 08:36:16;;;;;;;;;;;27.90;78.40;;;;;;5010502;28;19910;-71
2022/07/05 08:38:41;;;;;;;;;;;27.90;78.70;;;;;;5012264;28;20012;-70
2022/07/05 08:41:09;;;;;;;;;;;28.00;78.40;;;;;;5013651;28;20136;-70
2022/07/05 08:43:40;;;;;;;;;;;28.00;78.50;;;;;;5012397;28;19913;-70
2022/07/05 08:46:08;;;;;;;;;;;28.10;78.00;;;;;;5013202;28;19913;-71
2022/07/05 08:48:39;;;;;;;;;;;28.20;77.50;;;;;;5013061;28;19913;-70
2022/07/05 08:51:04;;;;;;;;;;;28.20;76.70;;;;;;5013123;28;19953;-71
2022/07/05 08:53:31;;;;;;;;;;;28.20;77.10;;;;;;5012458;28;19952;-71
2022/07/05 08:55:58;;;;;;;;;;;28.20;77.10;;;;;;5012963;28;19939;-69
2022/07/05 08:58:24;;;;;;;;;;;28.20;77.20;;;;;;5013296;28;19913;-69
2022/07/05 09:00:49;;;;;;;;;;;28.30;77.40;;;;;;5013204;28;19921;-70
2022/07/05 09:03:16;;;;;;;;;;;28.30;77.40;;;;;;5012360;28;20293;-71
2022/07/05 09:05:43;;;;;;;;;;;28.40;77.00;;;;;;5013520;28;20778;-70
2022/07/05 09:08:09;;;;;;;;;;;28.40;77.70;;;;;;5013373;28;19914;-69
2022/07/05 09:10:37;;;;;;;;;;;28.50;77.60;;;;;;5013186;28;20368;-70
2022/07/05 09:13:02;;;;;;;;;;;28.60;76.20;;;;;;5012701;28;19913;-70
2022/07/05 09:15:28;;;;;;;;;;;28.60;77.50;;;;;;5012814;28;19909;-70
2022/07/05 09:17:53;;;;;;;;;;;28.60;77.40;;;;;;5012577;28;20445;-70
2022/07/05 09:20:19;;;;;;;;;;;28.70;76.90;;;;;;5011852;28;20366;-71
2022/07/05 09:22:46;;;;;;;;;;;28.90;75.90;;;;;;5012487;28;20384;-71
2022/07/05 09:25:13;;;;;;;;;;;28.90;75.30;;;;;;5012630;28;20008;-70
2022/07/05 09:27:51;;;;;;;;;;;28.90;75.10;;;;;;5010616;28;19917;-71
2022/07/05 09:30:43;;;;;;;;;;;29.10;73.60;;;;;;5012322;28;19920;-70
2022/07/05 09:33:09;;;;;;;;;;;29.10;73.30;;;;;;5010129;28;19949;-70
2022/07/05 09:35:42;;;;;;;;;;;29.20;73.40;;;;;;5011745;28;19952;-70
2022/07/05 09:38:18;;;;;;;;;;;29.20;73.20;;;;;;5011960;28;19913;-70
2022/07/05 09:40:54;;;;;;;;;;;29.30;73.10;;;;;;5011867;28;20437;-70
2022/07/05 09:43:20;;;;;;;;;;;29.30;74.00;;;;;;5011934;28;19920;-70
2022/07/05 09:45:52;;;;;;;;;;;29.40;74.00;;;;;;5012077;28;20394;-70
2022/07/05 09:48:18;;;;;;;;;;;29.30;73.90;;;;;;5011978;28;19917;-70
2022/07/05 09:50:43;;;;;;;;;;;29.50;73.30;;;;;;5012019;28;19909;-70
2022/07/05 09:53:11;;;;;;;;;;;29.40;73.60;;;;;;5012316;28;19964;-71
2022/07/05 09:55:37;;;;;;;;;;;29.50;72.50;;;;;;5011900;28;20345;-70
2022/07/05 09:58:03;;;;;;;;;;;29.70;73.20;;;;;;5011550;28;19914;-70
2022/07/05 10:00:29;;;;;;;;;;;29.60;72.10;;;;;;5011582;28;19921;-71
2022/07/05 10:03:00;;;;;;;;;;;29.70;72.00;;;;;;5012086;28;19909;-70
2022/07/05 10:05:27;;;;;;;;;;;29.80;72.00;;;;;;5007783;28;19910;-71
2022/07/05 10:07:53;;;;;;;;;;;29.80;71.40;;;;;;5010939;28;19918;-70
2022/07/05 10:10:20;;;;;;;;;;;29.90;71.30;;;;;;5010520;28;19921;-70
2022/07/05 10:12:47;;;;;;;;;;;29.90;71.10;;;;;;5011964;28;19928;-70
2022/07/05 10:15:14;;;;;;;;;;;29.90;71.80;;;;;;5011069;28;19914;-71
2022/07/05 10:17:45;;;;;;;;;;;30.00;71.90;;;;;;5010794;28;20374;-71
2022/07/05 10:20:19;;;;;;;;;;;30.20;70.90;;;;;;5011183;28;19922;-70
2022/07/05 10:22:45;;;;;;;;;;;30.20;70.80;;;;;;5011902;28;19964;-70
2022/07/05 10:25:11;;;;;;;;;;;30.10;70.70;;;;;;5011741;28;19914;-70
2022/07/05 10:27:37;;;;;;;;;;;30.10;71.90;;;;;;5009499;28;20436;-69
2022/07/05 10:30:04;;;;;;;;;;;30.20;71.80;;;;;;5011783;28;19920;-71
2022/07/05 10:32:30;;;;;;;;;;;30.20;71.40;;;;;;5011466;28;19909;-70
2022/07/05 10:34:58;;;;;;;;;;;30.50;70.40;;;;;;5010907;28;19920;-70
2022/07/05 10:37:25;;;;;;;;;;;30.40;69.00;;;;;;5011229;28;19909;-70
2022/07/05 10:39:51;;;;;;;;;;;30.40;69.70;;;;;;5011998;28;19937;-71
2022/07/05 10:42:17;;;;;;;;;;;30.40;69.00;;;;;;5013718;28;19996;-71
2022/07/05 10:44:43;;;;;;;;;;;30.60;68.70;;;;;;5013984;28;19910;-73
2022/07/05 10:47:11;;;;;;;;;;;30.50;70.00;;;;;;5013380;28;20103;-74
2022/07/05 10:49:37;;;;;;;;;;;30.60;70.10;;;;;;5013505;28;19917;-72
2022/07/05 10:52:04;;;;;;;;;;;30.80;69.70;;;;;;5013760;28;19917;-69
2022/07/05 10:54:29;;;;;;;;;;;30.70;67.90;;;;;;5013018;28;19910;-71
2022/07/05 10:57:13;;;;;;;;;;;30.80;68.50;;;;;;5013647;28;19913;-71
2022/07/05 10:59:57;;;;;;;;;;;30.80;68.80;;;;;;5013243;28;19920;-72
2022/07/05 11:02:23;;;;;;;;;;;30.80;67.70;;;;;;5011942;28;19913;-74
2022/07/05 11:04:54;;;;;;;;;;;30.90;67.50;;;;;;5013391;28;20425;-74
2022/07/05 11:07:40;;;;;;;;;;;31.00;68.20;;;;;;5013199;28;20408;-75
2022/07/05 11:10:06;;;;;;;;;;;30.90;68.90;;;;;;5012917;28;19917;-73
2022/07/05 11:12:37;;;;;;;;;;;30.90;68.70;;;;;;5013218;28;19992;-73
2022/07/05 11:15:08;;;;;;;;;;;31.20;67.60;;;;;;5012857;28;19917;-74
2022/07/05 11:17:36;;;;;;;;;;;31.30;67.70;;;;;;5012792;28;19909;-74
2022/07/05 11:20:12;;;;;;;;;;;31.20;66.90;;;;;;5012977;28;20350;-74
2022/07/05 11:22:41;;;;;;;;;;;31.40;66.60;;;;;;5012774;28;19909;-74
2022/07/05 11:25:08;;;;;;;;;;;31.30;67.00;;;;;;5012705;28;19910;-74
2022/07/05 11:27:34;;;;;;;;;;;31.40;66.70;;;;;;5013130;28;19909;-74
2022/07/05 11:29:59;;;;;;;;;;;31.40;66.20;;;;;;5012864;28;19909;-74
2022/07/05 11:32:28;;;;;;;;;;;31.40;66.70;;;;;;5012252;28;19913;-73
2022/07/05 11:34:55;;;;;;;;;;;31.40;65.50;;;;;;5012868;28;19916;-73
2022/07/05 11:37:24;;;;;;;;;;;31.60;66.50;;;;;;5012287;28;19965;-74
2022/07/05 11:40:10;;;;;;;;;;;31.60;66.40;;;;;;5012239;28;19929;-74
2022/07/05 11:42:37;;;;;;;;;;;31.70;66.10;;;;;;5012512;28;19921;-74
2022/07/05 11:45:05;;;;;;;;;;;31.90;65.20;;;;;;5012768;28;19916;-73
2022/07/05 11:47:30;;;;;;;;;;;31.90;66.10;;;;;;5012543;28;20274;-73
2022/07/05 11:49:56;;;;;;;;;;;32.00;64.50;;;;;;5012429;28;19917;-74
2022/07/05 11:52:26;;;;;;;;;;;32.10;65.40;;;;;;5012344;28;19909;-74
2022/07/05 11:54:51;;;;;;;;;;;32.10;64.90;;;;;;5012775;28;19910;-74
2022/07/05 11:57:18;;;;;;;;;;;31.90;65.20;;;;;;5012560;28;20382;-76
2022/07/05 11:59:43;;;;;;;;;;;31.90;65.30;;;;;;5012760;28;20397;-75
2022/07/05 12:02:09;;;;;;;;;;;32.00;64.10;;;;;;5005644;28;19918;-74
2022/07/05 12:04:34;;;;;;;;;;;32.10;64.20;;;;;;5000632;28;19920;-75
2022/07/05 12:07:01;;;;;;;;;;;32.10;64.80;;;;;;5009901;28;19964;-74
2022/07/05 12:15:02;;;;;;;;;;;32.40;63.10;;;;;;5014100;28;19920;-74
2022/07/05 12:17:28;;;;;;;;;;;32.40;63.20;;;;;;5013696;28;19909;-73
2022/07/05 12:19:54;;;;;;;;;;;32.50;62.00;;;;;;5013545;28;19999;-74
2022/07/05 12:22:29;;;;;;;;;;;32.40;61.80;;;;;;5013180;28;19913;-74
2022/07/05 12:24:54;;;;;;;;;;;32.40;62.60;;;;;;5013761;28;20000;-75
2022/07/05 12:27:20;;;;;;;;;;;32.60;61.70;;;;;;5013872;28;20366;-74
2022/07/05 12:29:46;;;;;;;;;;;33.00;61.50;;;;;;5013090;28;20063;-72
2022/07/05 12:32:11;;;;;;;;;;;32.80;61.30;;;;;;5013759;28;20688;-73
2022/07/05 12:34:37;;;;;;;;;;;32.80;61.70;;;;;;5013560;28;20345;-73
2022/07/05 12:37:03;;;;;;;;;;;32.90;62.00;;;;;;5013124;28;19909;-74
2022/07/05 12:39:29;;;;;;;;;;;32.60;62.50;;;;;;5013044;28;19926;-74
2022/07/05 12:41:56;;;;;;;;;;;32.60;61.50;;;;;;5013221;28;20389;-73
2022/07/05 12:44:21;;;;;;;;;;;32.80;62.10;;;;;;5017179;28;19913;-74
2022/07/05 12:46:51;;;;;;;;;;;32.90;61.50;;;;;;5032742;28;19913;-74
2022/07/05 12:49:17;;;;;;;;;;;32.90;61.50;;;;;;5032580;28;19913;-73
2022/07/05 12:51:43;;;;;;;;;;;33.00;62.80;;;;;;5030455;28;19959;-74
2022/07/05 13:00:05;;;;;;;;;;;33.30;60.30;;;;;;5032858;28;19927;-74
2022/07/05 13:02:35;;;;;;;;;;;33.00;61.40;;;;;;5028756;28;19935;-74
2022/07/05 13:05:00;;;;;;;;;;;33.10;61.70;;;;;;5031880;28;19963;-73
2022/07/05 13:07:26;;;;;;;;;;;33.20;61.20;;;;;;5027342;28;20008;-74
2022/07/05 13:09:52;;;;;;;;;;;32.90;61.40;;;;;;5014987;28;19909;-71
2022/07/05 13:12:24;;;;;;;;;;;33.30;60.80;;;;;;5015596;28;19917;-72
2022/07/05 13:14:51;;;;;;;;;;;33.30;60.70;;;;;;5014923;28;19917;-71
2022/07/05 13:17:17;;;;;;;;;;;33.20;61.30;;;;;;5014832;28;19949;-72
2022/07/05 13:19:45;;;;;;;;;;;33.30;60.80;;;;;;5015104;28;19922;-71
2022/07/05 13:22:11;;;;;;;;;;;33.50;60.20;;;;;;5015427;28;19910;-71
2022/07/05 13:24:37;;;;;;;;;;;33.50;60.70;;;;;;5014362;28;19933;-72
2022/07/05 13:27:03;;;;;;;;;;;33.50;60.00;;;;;;5013278;28;20314;-72
2022/07/05 13:29:29;;;;;;;;;;;33.40;60.70;;;;;;5007176;28;19917;-71
2022/07/05 13:31:55;;;;;;;;;;;33.30;61.00;;;;;;5009935;28;19995;-71
2022/07/05 13:34:25;;;;;;;;;;;33.30;61.80;;;;;;5009630;28;20246;-71
2022/07/05 13:36:51;;;;;;;;;;;33.60;60.20;;;;;;5008997;28;19918;-71
2022/07/05 13:39:18;;;;;;;;;;;33.50;60.80;;;;;;5010690;28;20297;-72
2022/07/05 13:41:43;;;;;;;;;;;33.50;60.80;;;;;;5010871;28;19917;-72
2022/07/05 13:44:09;;;;;;;;;;;33.60;59.30;;;;;;5011082;28;19918;-72
2022/07/05 13:46:35;;;;;;;;;;;33.70;59.00;;;;;;5011305;28;20402;-72
2022/07/05 13:49:00;;;;;;;;;;;33.70;59.40;;;;;;5011327;28;19909;-72
2022/07/05 13:51:26;;;;;;;;;;;33.60;59.10;;;;;;5010590;28;19972;-72
2022/07/05 13:53:51;;;;;;;;;;;33.70;59.50;;;;;;5011137;28;20373;-72
2022/07/05 13:56:17;;;;;;;;;;;33.60;60.20;;;;;;5012707;28;19910;-71
2022/07/05 13:58:42;;;;;;;;;;;33.60;59.80;;;;;;5011909;28;19913;-72
2022/07/05 14:01:08;;;;;;;;;;;33.70;59.70;;;;;;5011751;28;19917;-72
2022/07/05 14:03:34;;;;;;;;;;;33.70;59.30;;;;;;5010319;28;19967;-72
2022/07/05 14:05:59;;;;;;;;;;;33.90;60.00;;;;;;5011219;28;19914;-71
2022/07/05 14:08:25;;;;;;;;;;;33.80;59.50;;;;;;5012114;28;20406;-72
2022/07/05 14:10:52;;;;;;;;;;;33.90;59.20;;;;;;5011627;28;19913;-72
2022/07/05 14:13:18;;;;;;;;;;;33.90;58.20;;;;;;5009858;28;20382;-72
2022/07/05 14:15:45;;;;;;;;;;;33.90;58.60;;;;;;5011417;28;19910;-72
2022/07/05 14:18:11;;;;;;;;;;;33.80;59.10;;;;;;5011073;28;19920;-72
2022/07/05 14:20:37;;;;;;;;;;;34.00;59.70;;;;;;5010131;28;19929;-72
2022/07/05 14:23:03;;;;;;;;;;;34.30;58.40;;;;;;5010436;28;19914;-72
2022/07/05 14:25:28;;;;;;;;;;;33.90;59.70;;;;;;5008727;28;20296;-72
2022/07/05 14:27:54;;;;;;;;;;;33.90;60.50;;;;;;5009595;28;19960;-72
2022/07/05 14:30:19;;;;;;;;;;;34.00;59.30;;;;;;5010881;28;20293;-72
2022/07/05 14:32:45;;;;;;;;;;;34.10;59.20;;;;;;5011157;28;19971;-72